Time;durP1;ratioP1;P1;durP2;ratioP2;P2;SDS_P1;SDS_P2;PMS_P1;PMS_P2;Temp;Humidity;BMP_temperature;BMP_pressure;BME280_temperature;BME280_humidity;BME280_pressure;Samples;Min_cycle;Max_cycle;Signal;HPM_P1;HPM_P2
2022/11/29 00:01:26;;;;;;;37.30;12.05;;;9.90;90.60;;;;;;9172330;19;20540;-69
2022/11/29 00:04:29;;;;;;;25.55;12.10;;;9.90;90.70;;;;;;9172420;19;20014;-69
2022/11/29 00:07:35;;;;;;;24.45;11.25;;;9.90;90.90;;;;;;9174203;19;20388;-68
2022/11/29 00:10:39;;;;;;;26.25;11.23;;;9.90;90.60;;;;;;9173974;19;20030;-69
2022/11/29 00:13:42;;;;;;;25.30;12.23;;;9.90;90.60;;;;;;9172827;19;20081;-69
2022/11/29 00:16:52;;;;;;;24.65;11.80;;;9.90;90.70;;;;;;9180078;19;20334;-69
2022/11/29 00:19:56;;;;;;;25.75;11.60;;;9.90;90.70;;;;;;9178999;19;20026;-68
2022/11/29 00:23:00;;;;;;;25.13;12.05;;;9.90;90.60;;;;;;9175453;19;20578;-68
2022/11/29 00:26:05;;;;;;;32.75;13.85;;;9.90;90.60;;;;;;9180662;19;20040;-70
2022/11/29 00:29:09;;;;;;;30.02;13.30;;;9.90;90.70;;;;;;9179890;19;20018;-70
2022/11/29 00:32:14;;;;;;;;;;;9.90;90.70;;;;;;9181884;19;20070;-70
2022/11/29 00:35:18;;;;;;;33.80;13.95;;;9.90;90.70;;;;;;9182119;19;20043;-68
2022/11/29 00:38:22;;;;;;;32.58;13.60;;;9.90;90.60;;;;;;9179636;19;20471;-68
2022/11/29 00:41:26;;;;;;;35.72;15.20;;;9.90;90.70;;;;;;9180087;19;20025;-69
2022/11/29 00:44:30;;;;;;;45.08;14.35;;;9.90;90.70;;;;;;9179587;19;20019;-67
2022/11/29 00:47:36;;;;;;;;;;;9.90;90.70;;;;;;9180595;19;20018;-67
2022/11/29 00:50:39;;;;;;;38.20;13.23;;;9.90;90.70;;;;;;9181645;19;20344;-68
2022/11/29 00:53:43;;;;;;;39.97;15.02;;;9.90;90.60;;;;;;9176368;19;20554;-67
2022/11/29 00:56:47;;;;;;;;;;;9.90;90.70;;;;;;9178415;19;20498;-67
2022/11/29 00:59:51;;;;;;;45.10;15.20;;;9.90;90.70;;;;;;9180751;19;20344;-69
2022/11/29 01:02:56;;;;;;;39.45;13.93;;;9.90;90.70;;;;;;9180587;19;20090;-68
2022/11/29 01:06:05;;;;;;;45.80;14.52;;;9.80;90.60;;;;;;9178793;19;20006;-68
2022/11/29 01:09:09;;;;;;;39.88;15.38;;;9.80;90.70;;;;;;9179133;19;20017;-69
2022/11/29 01:12:13;;;;;;;47.08;15.23;;;9.90;90.70;;;;;;9180406;19;20015;-68
2022/11/29 01:15:17;;;;;;;49.90;16.10;;;9.90;90.70;;;;;;9174728;19;20066;-68
2022/11/29 01:18:23;;;;;;;56.25;16.98;;;9.90;90.70;;;;;;9177666;19;20015;-71
2022/11/29 01:21:27;;;;;;;49.22;16.20;;;9.90;90.70;;;;;;9178551;19;20617;-67
2022/11/29 01:24:31;;;;;;;59.97;18.17;;;9.90;90.70;;;;;;9173171;19;20018;-69
2022/11/29 01:27:36;;;;;;;54.78;15.38;;;9.90;90.70;;;;;;9177639;19;20022;-69
2022/11/29 01:30:40;;;;;;;53.05;15.60;;;9.90;90.70;;;;;;9179532;19;20023;-68
2022/11/29 01:33:46;;;;;;;49.45;15.75;;;9.90;90.70;;;;;;9178195;19;20461;-69
2022/11/29 01:36:49;;;;;;;53.38;16.92;;;9.90;90.70;;;;;;9177445;19;20011;-70
2022/11/29 01:39:54;;;;;;;46.05;15.75;;;9.90;90.70;;;;;;9179597;19;20018;-69
2022/11/29 01:42:58;;;;;;;55.10;15.68;;;9.90;90.70;;;;;;9177956;19;20495;-68
2022/11/29 01:46:02;;;;;;;;;;;9.90;90.70;;;;;;9178895;19;20022;-70
2022/11/29 01:49:13;;;;;;;51.28;15.20;;;9.90;90.70;;;;;;9178731;19;19975;-68
2022/11/29 01:52:21;;;;;;;53.97;16.67;;;9.90;90.70;;;;;;9177145;19;20018;-67
2022/11/29 01:55:26;;;;;;;56.92;16.85;;;9.90;90.70;;;;;;9176603;19;20490;-68
2022/11/29 01:58:30;;;;;;;47.85;16.65;;;9.90;90.70;;;;;;9180131;19;20022;-68
2022/11/29 02:01:34;;;;;;;50.78;15.38;;;9.90;90.70;;;;;;9178678;19;20023;-68
2022/11/29 02:04:42;;;;;;;58.85;16.77;;;9.90;90.70;;;;;;9176968;19;20052;-67
2022/11/29 02:07:52;;;;;;;47.80;15.15;;;9.90;90.70;;;;;;9176902;19;20086;-67
2022/11/29 02:11:23;;;;;;;51.97;16.20;;;9.90;90.70;;;;;;9177915;19;20019;-69
2022/11/29 02:14:48;;;;;;;44.83;15.45;;;9.90;90.70;;;;;;9178624;19;20340;-69
2022/11/29 02:18:05;;;;;;;47.45;15.65;;;9.90;90.70;;;;;;9175167;19;20014;-69
2022/11/29 02:21:25;;;;;;;50.72;16.08;;;9.90;90.70;;;;;;9178093;19;20479;-69
2022/11/29 02:25:07;;;;;;;49.78;14.80;;;9.90;90.70;;;;;;9174149;19;20096;-67
2022/11/29 02:28:45;;;;;;;50.88;15.38;;;9.90;90.70;;;;;;9175478;19;20007;-68
2022/11/29 02:32:26;;;;;;;66.40;16.33;;;9.90;90.70;;;;;;9178236;19;20015;-67
2022/11/29 02:35:53;;;;;;;52.20;14.88;;;9.90;90.70;;;;;;9175194;19;20015;-68
2022/11/29 02:39:39;;;;;;;63.60;17.02;;;9.90;90.70;;;;;;9177038;19;20021;-68
2022/11/29 02:43:02;;;;;;;54.45;16.23;;;9.90;90.70;;;;;;9176114;19;20014;-68
2022/11/29 02:46:21;;;;;;;58.50;16.73;;;9.90;90.70;;;;;;9177463;19;20049;-68
2022/11/29 02:49:40;;;;;;;52.05;16.30;;;9.90;90.70;;;;;;9177134;19;20029;-70
2022/11/29 02:52:53;;;;;;;63.13;16.85;;;9.90;90.70;;;;;;9173535;19;20018;-68
2022/11/29 02:56:05;;;;;;;73.00;17.50;;;9.90;90.70;;;;;;9174918;19;20018;-67
2022/11/29 02:59:17;;;;;;;62.45;16.40;;;9.90;90.70;;;;;;9177480;19;20011;-68
2022/11/29 03:02:28;;;;;;;50.08;15.63;;;9.90;90.70;;;;;;9174876;19;20053;-69
2022/11/29 03:05:43;;;;;;;60.40;16.65;;;9.90;90.70;;;;;;9175854;19;20053;-68
2022/11/29 03:08:53;;;;;;;59.05;17.15;;;9.90;90.70;;;;;;9174586;19;20139;-68
2022/11/29 03:12:08;;;;;;;58.40;18.25;;;9.90;90.80;;;;;;9176929;19;20021;-68
2022/11/29 03:15:25;;;;;;;65.22;18.60;;;9.90;90.70;;;;;;9176310;19;20597;-67
2022/11/29 03:18:38;;;;;;;93.18;19.45;;;9.90;90.70;;;;;;9174697;19;20081;-69
2022/11/29 03:21:52;;;;;;;76.03;19.45;;;9.90;90.70;;;;;;9174107;19;20018;-67
2022/11/29 03:25:03;;;;;;;82.47;19.48;;;9.90;90.70;;;;;;9169413;19;20019;-67
2022/11/29 03:28:14;;;;;;;87.75;19.75;;;9.90;90.70;;;;;;9176337;19;20006;-67
2022/11/29 03:31:24;;;;;;;83.70;18.65;;;9.90;90.80;;;;;;9176035;19;20042;-68
2022/11/29 03:34:44;;;;;;;78.68;18.20;;;9.90;90.80;;;;;;9174167;19;20516;-68
2022/11/29 03:37:59;;;;;;;64.68;16.58;;;9.90;90.80;;;;;;9172612;19;20885;-68
2022/11/29 03:41:15;;;;;;;65.78;16.55;;;9.90;90.80;;;;;;9174102;19;20014;-67
2022/11/29 03:44:23;;;;;;;63.08;15.63;;;9.90;90.80;;;;;;9175258;19;20014;-70
2022/11/29 03:47:32;;;;;;;59.50;16.35;;;9.90;90.80;;;;;;9174513;19;20038;-67
2022/11/29 03:50:39;;;;;;;68.78;15.85;;;9.90;90.80;;;;;;9178880;19;20025;-67
2022/11/29 03:53:51;;;;;;;67.88;15.75;;;9.80;90.80;;;;;;9179122;19;20042;-67
2022/11/29 03:56:56;;;;;;;77.53;17.25;;;9.90;90.80;;;;;;9180233;19;20018;-68
2022/11/29 04:00:08;;;;;;;57.17;15.23;;;9.80;90.80;;;;;;9181510;19;20023;-69
2022/11/29 04:03:40;;;;;;;67.97;16.55;;;9.80;90.80;;;;;;9183196;19;20031;-67
2022/11/29 04:07:04;;;;;;;59.80;15.70;;;9.80;90.80;;;;;;9181966;19;20011;-67
2022/11/29 04:10:25;;;;;;;51.47;15.27;;;9.80;90.80;;;;;;9180938;19;20018;-69
2022/11/29 04:14:03;;;;;;;58.55;15.35;;;9.80;90.80;;;;;;9183266;19;20020;-69
2022/11/29 04:17:48;;;;;;;57.45;16.17;;;9.80;91.00;;;;;;9180326;19;20018;-68
2022/11/29 04:21:30;;;;;;;55.22;15.32;;;9.80;90.70;;;;;;9180961;19;20011;-67
2022/11/29 04:25:08;;;;;;;47.88;14.95;;;9.80;90.70;;;;;;9176528;19;20356;-68
2022/11/29 04:28:42;;;;;;;55.90;14.77;;;9.70;90.70;;;;;;9180344;19;20398;-68
2022/11/29 04:32:15;;;;;;;59.92;15.77;;;9.70;90.70;;;;;;9178724;19;20363;-67
2022/11/29 04:35:36;;;;;;;53.83;14.55;;;9.80;90.70;;;;;;9179921;19;20014;-67
2022/11/29 04:39:16;;;;;;;58.00;15.23;;;9.70;90.70;;;;;;9183268;19;20014;-70
2022/11/29 04:42:51;;;;;;;56.10;13.73;;;9.70;90.70;;;;;;9179341;19;20818;-68
2022/11/29 04:46:15;;;;;;;47.00;14.05;;;9.70;90.70;;;;;;9178151;19;20391;-68
2022/11/29 04:49:35;;;;;;;47.75;13.98;;;9.70;90.70;;;;;;9178983;19;20019;-68
2022/11/29 04:53:08;;;;;;;53.78;15.13;;;9.70;90.70;;;;;;9178044;19;20357;-68
2022/11/29 04:56:22;;;;;;;55.35;14.55;;;9.70;90.80;;;;;;9178630;19;20018;-68
2022/11/29 04:59:31;;;;;;;50.53;14.20;;;9.60;90.70;;;;;;9181352;19;20019;-67
2022/11/29 05:02:43;;;;;;;49.88;14.02;;;9.60;90.70;;;;;;9175665;19;20019;-67
2022/11/29 05:05:55;;;;;;;57.33;14.65;;;9.70;91.00;;;;;;9179357;19;20029;-68
2022/11/29 05:09:07;;;;;;;47.63;12.57;;;9.60;90.70;;;;;;9181771;19;20650;-67
2022/11/29 05:12:20;;;;;;;45.63;12.95;;;9.60;90.70;;;;;;9180277;19;20441;-69
2022/11/29 05:15:43;;;;;;;48.85;13.35;;;9.60;90.70;;;;;;9179313;19;20006;-68
2022/11/29 05:19:14;;;;;;;52.47;14.05;;;9.60;90.80;;;;;;9178419;19;20929;-67
2022/11/29 05:22:40;;;;;;;57.33;14.10;;;9.60;90.70;;;;;;9177185;19;20014;-69
2022/11/29 05:25:49;;;;;;;52.30;14.30;;;9.60;90.80;;;;;;9178777;19;20018;-67
2022/11/29 05:29:01;;;;;;;51.88;13.05;;;9.60;90.80;;;;;;9179884;19;20010;-68
2022/11/29 05:32:22;;;;;;;52.53;12.90;;;9.50;90.70;;;;;;9178917;19;20518;-68
2022/11/29 05:35:41;;;;;;;44.90;13.02;;;9.50;90.70;;;;;;9176144;19;20061;-68
2022/11/29 05:39:11;;;;;;;57.45;14.30;;;9.60;90.80;;;;;;9170059;19;20518;-68
2022/11/29 05:42:35;;;;;;;39.58;12.60;;;9.50;90.80;;;;;;9174895;19;20007;-67
2022/11/29 05:45:46;;;;;;;46.95;11.95;;;9.50;90.70;;;;;;9175504;19;20015;-68
2022/11/29 05:48:59;;;;;;;44.90;12.48;;;9.50;90.70;;;;;;9172290;19;20017;-68
2022/11/29 05:52:20;;;;;;;45.00;12.48;;;9.50;90.70;;;;;;9171125;19;20042;-68
2022/11/29 05:55:35;;;;;;;49.60;12.60;;;9.50;90.80;;;;;;9172812;19;20014;-68
2022/11/29 05:58:48;;;;;;;47.92;12.38;;;9.50;90.70;;;;;;9169859;19;20085;-67
2022/11/29 06:02:01;;;;;;;29.13;8.48;;;9.40;90.70;;;;;;9176066;19;20015;-67
2022/11/29 06:05:13;;;;;;;45.72;12.32;;;9.40;90.70;;;;;;9176064;19;20007;-70
2022/11/29 06:08:23;;;;;;;55.85;15.52;;;9.40;90.70;;;;;;9175343;19;20666;-69
2022/11/29 06:11:34;;;;;;;58.63;15.05;;;9.40;90.70;;;;;;9176517;19;20054;-69
2022/11/29 06:15:05;;;;;;;48.60;14.68;;;9.40;90.70;;;;;;9178586;19;20015;-67
2022/11/29 06:18:27;;;;;;;48.00;12.45;;;9.40;90.70;;;;;;9175049;19;20054;-69
2022/11/29 06:21:39;;;;;;;49.13;13.85;;;9.30;90.70;;;;;;9178950;19;20014;-68
2022/11/29 06:24:58;;;;;;;50.10;14.18;;;9.30;90.70;;;;;;9174008;19;20018;-67
2022/11/29 06:28:25;;;;;;;51.92;13.38;;;9.30;90.70;;;;;;9178822;19;20011;-69
2022/11/29 06:31:33;;;;;;;45.80;13.75;;;9.30;90.70;;;;;;9176026;19;20022;-69
2022/11/29 06:34:45;;;;;;;44.42;13.65;;;9.30;90.70;;;;;;9176114;19;20018;-67
2022/11/29 06:37:52;;;;;;;47.95;12.55;;;9.30;90.70;;;;;;9173693;19;20014;-68
2022/11/29 06:40:58;;;;;;;56.03;13.27;;;9.30;90.70;;;;;;9178234;19;20014;-68
2022/11/29 06:44:08;;;;;;;42.08;12.55;;;9.30;91.00;;;;;;9177926;19;20021;-68
2022/11/29 06:47:23;;;;;;;43.60;12.63;;;9.30;90.80;;;;;;9175400;19;20365;-68
2022/11/29 06:50:37;;;;;;;49.40;13.70;;;9.20;90.80;;;;;;9177055;19;20017;-69
2022/11/29 06:53:47;;;;;;;49.95;13.15;;;9.20;90.80;;;;;;9172794;19;20022;-68
2022/11/29 06:56:59;;;;;;;50.42;12.30;;;9.20;90.70;;;;;;9175707;19;20021;-68
2022/11/29 07:00:13;;;;;;;50.97;12.68;;;9.20;90.80;;;;;;9175249;19;20014;-68
2022/11/29 07:03:25;;;;;;;;;;;9.20;90.80;;;;;;9178711;19;20035;-67
2022/11/29 07:06:30;;;;;;;42.88;12.38;;;9.20;90.70;;;;;;9175798;19;20337;-70
2022/11/29 07:09:36;;;;;;;42.92;12.10;;;9.20;90.70;;;;;;9172405;19;20021;-68
2022/11/29 07:12:40;;;;;;;45.15;12.68;;;9.20;90.70;;;;;;9169061;19;20022;-67
2022/11/29 07:15:55;;;;;;;44.47;12.68;;;9.20;90.70;;;;;;9168090;19;20026;-67
2022/11/29 07:19:08;;;;;;;53.33;13.65;;;9.20;90.80;;;;;;9170060;19;20656;-68
2022/11/29 07:22:28;;;;;;;41.22;12.73;;;9.20;90.80;;;;;;9165135;19;20027;-71
2022/11/29 07:25:44;;;;;;;47.90;13.50;;;9.10;90.80;;;;;;9171003;19;20022;-69
2022/11/29 07:29:02;;;;;;;44.03;12.05;;;9.20;90.80;;;;;;9174748;19;20026;-67
2022/11/29 07:32:17;;;;;;;31.88;10.80;;;9.20;90.80;;;;;;9167375;19;20487;-68
2022/11/29 07:35:31;;;;;;;39.05;12.77;;;9.20;90.80;;;;;;9163536;19;20018;-69
2022/11/29 07:38:46;;;;;;;33.83;10.63;;;9.20;90.80;;;;;;9163473;19;20082;-69
2022/11/29 07:42:00;;;;;;;43.85;13.40;;;9.10;90.80;;;;;;9176485;19;20388;-68
2022/11/29 07:45:14;;;;;;;38.53;11.95;;;9.10;90.80;;;;;;9174554;19;20136;-68
2022/11/29 07:48:20;;;;;;;40.90;12.48;;;9.10;90.80;;;;;;9177035;19;20030;-67
2022/11/29 07:51:24;;;;;;;45.95;13.18;;;9.10;90.80;;;;;;9169314;19;20043;-70
2022/11/29 07:54:27;;;;;;;;;;;9.10;91.00;;;;;;9169969;19;20014;-69
2022/11/29 07:57:31;;;;;;;39.35;12.40;;;9.10;90.80;;;;;;9173472;19;19955;-68
2022/11/29 08:00:38;;;;;;;41.40;11.70;;;9.10;90.70;;;;;;9177526;19;20066;-67
2022/11/29 08:03:44;;;;;;;42.42;11.68;;;9.10;90.80;;;;;;9175877;19;20501;-67
2022/11/29 08:06:48;;;;;;;37.42;11.98;;;9.10;90.80;;;;;;9177767;19;20051;-68
2022/11/29 08:09:51;;;;;;;39.22;11.15;;;9.10;90.80;;;;;;9176377;19;20484;-70
2022/11/29 08:12:55;;;;;;;36.22;10.30;;;9.10;90.80;;;;;;9177987;19;20759;-68
2022/11/29 08:15:59;;;;;;;;;;;9.10;90.80;;;;;;9177990;19;20065;-69
2022/11/29 08:19:05;;;;;;;35.35;10.60;;;9.10;90.80;;;;;;9180534;19;19919;-68
2022/11/29 08:22:09;;;;;;;35.00;11.23;;;9.10;90.70;;;;;;9181783;19;20332;-69
2022/11/29 08:25:13;;;;;;;35.03;10.63;;;9.10;90.80;;;;;;9178242;19;20399;-67
2022/11/29 08:28:17;;;;;;;34.50;11.27;;;9.10;90.80;;;;;;9182639;19;20014;-67
2022/11/29 08:31:21;;;;;;;34.92;10.70;;;9.10;90.80;;;;;;9181179;19;20010;-68
2022/11/29 08:34:27;;;;;;;40.85;10.60;;;9.10;90.80;;;;;;9182533;19;20014;-67
2022/11/29 08:37:31;;;;;;;43.65;12.85;;;9.10;90.80;;;;;;9179941;19;20018;-68
2022/11/29 08:40:35;;;;;;;39.67;11.70;;;9.10;90.80;;;;;;9181965;19;20018;-68
2022/11/29 08:43:38;;;;;;;42.63;12.98;;;9.10;90.80;;;;;;9181645;19;20033;-69
2022/11/29 08:50:04;;;;;;;41.17;12.05;;;9.10;90.80;;;;;;9171895;19;20854;-69
2022/11/29 08:56:26;;;;;;;40.25;12.75;;;9.20;90.80;;;;;;9177605;19;20011;-67
2022/11/29 08:59:50;;;;;;;47.85;13.60;;;9.20;90.80;;;;;;9172583;19;20026;-68
2022/11/29 09:02:54;;;;;;;;;;;9.20;90.80;;;;;;9171606;19;20040;-68
2022/11/29 09:05:59;;;;;;;51.25;14.05;;;9.20;90.80;;;;;;9175205;19;20284;-68
2022/11/29 09:09:03;;;;;;;49.53;14.50;;;9.20;90.80;;;;;;9173541;19;20122;-68
2022/11/29 09:12:07;;;;;;;;;;;9.20;90.80;;;;;;9174134;19;20478;-70
2022/11/29 09:15:12;;;;;;;55.07;12.57;;;9.20;90.80;;;;;;9175701;19;20253;-68
2022/11/29 09:18:16;;;;;;;52.25;13.63;;;9.20;90.80;;;;;;9178748;19;20468;-68
2022/11/29 09:21:22;;;;;;;44.65;12.85;;;9.20;90.80;;;;;;9173293;19;20452;-67
2022/11/29 09:24:26;;;;;;;50.72;13.13;;;9.20;90.80;;;;;;9165257;19;20026;-69
2022/11/29 09:27:30;;;;;;;;;;;9.20;90.80;;;;;;9173851;19;20021;-69
2022/11/29 09:30:36;;;;;;;40.80;10.63;;;9.20;90.80;;;;;;9156908;19;19926;-67
2022/11/29 09:33:41;;;;;;;58.92;13.30;;;9.20;90.70;;;;;;9162533;19;20022;-67
2022/11/29 09:36:47;;;;;;;43.13;12.65;;;9.20;90.80;;;;;;9162192;19;20019;-68
2022/11/29 09:39:50;;;;;;;52.63;13.40;;;9.20;90.80;;;;;;9164157;19;20026;-68
2022/11/29 09:43:01;;;;;;;49.88;12.77;;;9.20;90.80;;;;;;9158920;19;20018;-70
2022/11/29 09:46:16;;;;;;;48.28;12.43;;;9.20;90.90;;;;;;9165742;19;20022;-72
2022/11/29 09:49:56;;;;;;;46.92;13.27;;;9.20;90.90;;;;;;9167848;19;20623;-68
2022/11/29 09:53:17;;;;;;;52.25;13.77;;;9.20;90.90;;;;;;9168488;19;20015;-70
2022/11/29 09:56:29;;;;;;;48.80;13.32;;;9.30;91.20;;;;;;9167816;19;20018;-68
2022/11/29 09:59:37;;;;;;;45.47;12.75;;;9.20;90.90;;;;;;9169512;19;20546;-67
2022/11/29 10:02:46;;;;;;;50.92;13.63;;;9.30;90.90;;;;;;9169912;19;20369;-69
2022/11/29 10:05:56;;;;;;;55.92;13.73;;;9.30;90.90;;;;;;9164164;19;20388;-69
2022/11/29 10:09:05;;;;;;;49.13;12.57;;;9.30;90.90;;;;;;9167053;19;20017;-67
2022/11/29 10:12:17;;;;;;;48.22;13.32;;;9.30;90.90;;;;;;9162450;19;20094;-68
2022/11/29 10:15:24;;;;;;;48.63;12.90;;;9.30;90.90;;;;;;9177559;19;20019;-67
2022/11/29 10:18:35;;;;;;;48.63;12.15;;;9.40;91.00;;;;;;9168691;19;20021;-71
2022/11/29 10:21:44;;;;;;;46.00;12.95;;;9.40;91.00;;;;;;9168566;19;20018;-69
2022/11/29 10:24:58;;;;;;;53.35;13.32;;;9.40;91.00;;;;;;9161688;19;20027;-68
2022/11/29 10:28:02;;;;;;;54.75;14.57;;;9.40;91.00;;;;;;9165584;19;20348;-68
2022/11/29 10:31:18;;;;;;;50.92;13.70;;;9.40;90.90;;;;;;9165348;19;20057;-68
2022/11/29 10:34:24;;;;;;;57.92;15.05;;;9.40;90.90;;;;;;9170060;19;20006;-68
2022/11/29 10:37:31;;;;;;;52.25;14.10;;;9.50;91.00;;;;;;9166431;19;20361;-69
2022/11/29 10:40:40;;;;;;;63.58;14.38;;;9.40;90.90;;;;;;9169780;19;20019;-68
2022/11/29 10:43:44;;;;;;;50.50;13.65;;;9.50;91.00;;;;;;9168973;19;20014;-67
2022/11/29 10:46:48;;;;;;;;;;;9.50;90.90;;;;;;9171769;19;20026;-68
2022/11/29 10:49:52;;;;;;;52.83;15.75;;;9.50;91.00;;;;;;9176870;19;20192;-69
2022/11/29 10:52:56;;;;;;;;;;;9.50;90.90;;;;;;9173071;19;20576;-68
2022/11/29 10:56:10;;;;;;;64.00;15.05;;;9.60;90.90;;;;;;9168243;19;20336;-69
2022/11/29 10:59:21;;;;;;;57.33;13.93;;;9.60;90.90;;;;;;9170135;19;20025;-68
2022/11/29 11:02:26;;;;;;;56.22;15.75;;;9.60;90.90;;;;;;9175492;19;20026;-67
2022/11/29 11:05:30;;;;;;;52.25;14.40;;;9.60;90.90;;;;;;9175693;19;20370;-68
2022/11/29 11:08:35;;;;;;;57.55;16.45;;;9.60;91.00;;;;;;9172575;19;20093;-68
2022/11/29 11:11:44;;;;;;;57.92;15.48;;;9.60;91.00;;;;;;9167845;19;20030;-69
2022/11/29 11:14:50;;;;;;;53.58;14.75;;;9.60;91.00;;;;;;9169440;19;20014;-67
2022/11/29 11:17:59;;;;;;;48.75;14.90;;;9.60;91.00;;;;;;9167088;19;20018;-68
2022/11/29 11:21:03;;;;;;;61.97;16.95;;;9.70;91.00;;;;;;9170481;19;20021;-67
2022/11/29 11:24:23;;;;;;;58.40;15.95;;;9.70;91.00;;;;;;9163927;19;20010;-68
2022/11/29 11:27:35;;;;;;;56.42;14.52;;;9.70;91.00;;;;;;9172481;19;20014;-67
2022/11/29 11:30:39;;;;;;;54.65;14.77;;;9.70;91.00;;;;;;9166949;19;20014;-68
2022/11/29 11:33:43;;;;;;;;;;;9.80;91.00;;;;;;9164321;19;20026;-71
2022/11/29 11:36:47;;;;;;;52.45;15.05;;;9.80;91.00;;;;;;9165352;19;19925;-70
2022/11/29 11:39:54;;;;;;;52.00;14.82;;;9.80;91.00;;;;;;9166682;19;20023;-70
2022/11/29 11:43:02;;;;;;;39.78;11.85;;;9.80;91.00;;;;;;9165175;19;20019;-70
2022/11/29 11:46:07;;;;;;;37.65;12.85;;;9.80;91.00;;;;;;9169291;19;20026;-70
2022/11/29 11:49:13;;;;;;;50.90;14.50;;;9.80;91.00;;;;;;9161554;19;20018;-67
2022/11/29 11:52:21;;;;;;;43.17;14.30;;;9.80;91.00;;;;;;9159317;19;20010;-68
2022/11/29 11:55:33;;;;;;;47.25;13.63;;;9.90;91.00;;;;;;9158740;19;20057;-68
2022/11/29 11:58:46;;;;;;;46.00;12.85;;;9.90;91.00;;;;;;9158646;19;20025;-68
2022/11/29 12:01:50;;;;;;;52.08;15.38;;;9.90;91.00;;;;;;9163285;19;20025;-68
2022/11/29 12:04:55;;;;;;;;;;;9.90;91.00;;;;;;9166487;19;20031;-68
2022/11/29 12:08:02;;;;;;;37.63;13.13;;;9.90;91.00;;;;;;9163709;19;19929;-68
2022/11/29 12:11:16;;;;;;;39.78;12.40;;;10.00;91.00;;;;;;9173373;19;20250;-69
2022/11/29 12:14:32;;;;;;;40.97;14.15;;;10.00;91.00;;;;;;9176488;19;20018;-67
2022/11/29 12:17:40;;;;;;;49.67;13.75;;;10.00;91.00;;;;;;9174911;19;20038;-68
2022/11/29 12:20:51;;;;;;;44.75;13.90;;;10.00;91.00;;;;;;9167116;19;20398;-68
2022/11/29 12:24:00;;;;;;;39.38;13.00;;;10.00;91.00;;;;;;9168449;19;20090;-68
2022/11/29 12:27:06;;;;;;;39.83;13.38;;;10.00;91.00;;;;;;9174317;19;20019;-69
2022/11/29 12:30:16;;;;;;;44.33;13.60;;;10.00;91.00;;;;;;9168267;19;20484;-68
2022/11/29 12:33:35;;;;;;;43.47;12.80;;;10.10;91.10;;;;;;9172926;19;20014;-69
2022/11/29 12:36:46;;;;;;;43.20;12.95;;;10.10;91.10;;;;;;9167699;19;20030;-68
2022/11/29 12:39:57;;;;;;;40.92;14.32;;;10.10;91.10;;;;;;9169918;19;20109;-68
2022/11/29 12:43:09;;;;;;;47.42;14.05;;;10.10;91.10;;;;;;9174929;19;20052;-68
2022/11/29 12:46:23;;;;;;;43.38;12.57;;;10.10;91.10;;;;;;9180316;19;20514;-68
2022/11/29 12:49:34;;;;;;;56.70;13.52;;;10.20;91.10;;;;;;9171546;19;20102;-69
2022/11/29 12:52:47;;;;;;;45.83;13.68;;;10.20;91.10;;;;;;9172770;19;20049;-68
2022/11/29 12:56:02;;;;;;;52.45;16.25;;;10.20;91.10;;;;;;9173610;19;20018;-67
2022/11/29 12:59:23;;;;;;;47.28;14.15;;;10.20;91.10;;;;;;9173529;19;20022;-68
2022/11/29 13:02:41;;;;;;;44.95;12.65;;;10.30;91.10;;;;;;9174723;19;20126;-68
2022/11/29 13:05:56;;;;;;;47.38;13.95;;;10.30;91.10;;;;;;9171655;19;20017;-68
2022/11/29 13:09:20;;;;;;;46.00;13.48;;;10.30;91.10;;;;;;9177434;19;20022;-70
2022/11/29 13:12:34;;;;;;;46.40;12.60;;;10.30;91.10;;;;;;9171999;19;20010;-67
2022/11/29 13:15:42;;;;;;;43.90;12.68;;;10.30;91.10;;;;;;9174106;19;20026;-68
2022/11/29 13:18:54;;;;;;;38.50;11.43;;;10.40;91.10;;;;;;9172726;19;20471;-70
2022/11/29 13:22:03;;;;;;;40.60;12.35;;;10.40;91.10;;;;;;9172540;19;20495;-67
2022/11/29 13:25:15;;;;;;;33.80;12.65;;;10.40;91.00;;;;;;9173515;19;20471;-68
2022/11/29 13:28:24;;;;;;;38.17;12.00;;;10.50;91.10;;;;;;9174409;19;20026;-68
2022/11/29 13:31:28;;;;;;;44.20;12.95;;;10.50;91.00;;;;;;9178925;19;20030;-68
2022/11/29 13:34:42;;;;;;;39.97;12.15;;;10.50;91.00;;;;;;9178673;19;20011;-68
2022/11/29 13:37:51;;;;;;;40.35;12.80;;;10.50;91.00;;;;;;9175361;19;20019;-68
2022/11/29 13:41:05;;;;;;;38.75;10.80;;;10.50;91.00;;;;;;9179017;19;20784;-68
2022/11/29 13:44:16;;;;;;;43.47;12.10;;;10.50;91.00;;;;;;9179801;19;20072;-67
2022/11/29 13:47:21;;;;;;;37.20;12.00;;;10.60;91.10;;;;;;9177621;19;20030;-69
2022/11/29 13:50:41;;;;;;;43.50;12.40;;;10.60;91.00;;;;;;9178828;19;20035;-67
2022/11/29 13:53:45;;;;;;;37.80;11.57;;;10.60;91.10;;;;;;9170985;19;20014;-67
2022/11/29 13:57:02;;;;;;;40.15;10.15;;;10.60;91.30;;;;;;9174857;19;20015;-68
2022/11/29 14:00:27;;;;;;;33.30;11.18;;;10.60;91.10;;;;;;9174652;19;20023;-67
2022/11/29 14:03:35;;;;;;;33.00;9.60;;;10.60;91.00;;;;;;9171374;19;20475;-70
2022/11/29 14:06:42;;;;;;;29.55;9.70;;;10.60;91.00;;;;;;9173268;19;20022;-69
2022/11/29 14:09:59;;;;;;;42.00;11.02;;;10.70;91.10;;;;;;9177136;19;20395;-68
2022/11/29 14:13:03;;;;;;;36.80;10.15;;;10.70;91.10;;;;;;9178247;19;20015;-67
2022/11/29 14:16:16;;;;;;;30.95;10.52;;;10.70;91.00;;;;;;9173108;19;20754;-68
2022/11/29 14:19:23;;;;;;;32.55;10.35;;;10.70;91.00;;;;;;9166637;19;20018;-69
2022/11/29 14:22:29;;;;;;;31.48;10.70;;;10.80;91.10;;;;;;9166079;19;20467;-67
2022/11/29 14:25:34;;;;;;;33.25;9.77;;;10.80;91.00;;;;;;9171432;19;20021;-68
2022/11/29 14:28:55;;;;;;;31.70;9.63;;;10.80;91.00;;;;;;9173676;19;20015;-69
2022/11/29 14:32:00;;;;;;;29.90;9.35;;;10.80;91.00;;;;;;9171632;19;20022;-68
2022/11/29 14:35:14;;;;;;;35.60;11.05;;;10.80;90.90;;;;;;9170477;19;20022;-67
2022/11/29 14:38:27;;;;;;;36.15;10.10;;;10.80;91.00;;;;;;9171128;19;20023;-67
2022/11/29 14:41:52;;;;;;;25.35;9.32;;;10.80;90.90;;;;;;9171842;19;20019;-67
2022/11/29 14:45:00;;;;;;;25.70;9.68;;;10.80;90.90;;;;;;9173937;19;20025;-68
2022/11/29 14:48:04;;;;;;;35.33;11.10;;;10.80;90.90;;;;;;9174665;19;20018;-67
2022/11/29 14:51:10;;;;;;;25.52;9.57;;;10.80;90.90;;;;;;9177396;19;20017;-67
2022/11/29 14:54:18;;;;;;;34.03;11.00;;;10.80;90.90;;;;;;9176741;19;20015;-68
2022/11/29 14:57:52;;;;;;;22.10;8.65;;;10.80;90.90;;;;;;9168227;19;20031;-68
2022/11/29 15:01:02;;;;;;;25.73;8.90;;;10.80;90.90;;;;;;9170692;19;20014;-68
2022/11/29 15:04:14;;;;;;;27.85;8.75;;;10.80;90.90;;;;;;9170979;19;20018;-68
2022/11/29 15:07:27;;;;;;;37.55;10.20;;;10.70;90.90;;;;;;9165732;19;20078;-68
2022/11/29 15:10:37;;;;;;;23.70;9.32;;;10.70;90.90;;;;;;9167759;19;20018;-68
2022/11/29 15:13:50;;;;;;;23.98;7.85;;;10.70;90.90;;;;;;9169122;19;20599;-70
2022/11/29 15:17:04;;;;;;;36.27;8.97;;;10.70;90.90;;;;;;9169032;19;20018;-67
2022/11/29 15:20:16;;;;;;;;;;;10.70;90.90;;;;;;9167994;19;20021;-68
2022/11/29 15:23:20;;;;;;;28.65;9.02;;;10.70;90.90;;;;;;9165467;19;19942;-68
2022/11/29 15:26:25;;;;;;;20.80;8.88;;;10.70;90.90;;;;;;9168241;19;20049;-68
2022/11/29 15:29:31;;;;;;;33.10;10.57;;;10.70;90.80;;;;;;9169879;19;20015;-68
2022/11/29 15:32:35;;;;;;;30.60;12.23;;;10.70;90.90;;;;;;9161886;19;20019;-69
2022/11/29 15:35:39;;;;;;;;;;;10.70;90.90;;;;;;9170163;19;20023;-69
2022/11/29 15:38:44;;;;;;;24.73;9.40;;;10.70;90.90;;;;;;9164177;19;19914;-67
2022/11/29 15:41:50;;;;;;;28.13;8.93;;;10.70;90.80;;;;;;9164297;19;20038;-67
2022/11/29 15:44:54;;;;;;;25.48;9.18;;;10.60;90.80;;;;;;9168698;19;20018;-67
2022/11/29 15:48:17;;;;;;;28.08;9.45;;;10.60;90.90;;;;;;9177265;19;20022;-68
2022/11/29 15:51:28;;;;;;;24.52;8.70;;;10.60;90.80;;;;;;9175087;19;20019;-68
2022/11/29 15:54:36;;;;;;;27.48;9.38;;;10.60;90.90;;;;;;9175615;19;20498;-68
2022/11/29 15:57:45;;;;;;;28.85;9.85;;;10.60;91.10;;;;;;9173914;19;20081;-68
2022/11/29 16:00:51;;;;;;;26.88;9.55;;;10.60;90.90;;;;;;9175413;19;20010;-67
2022/11/29 16:03:58;;;;;;;29.75;10.75;;;10.60;90.90;;;;;;9175586;19;20023;-71
2022/11/29 16:07:05;;;;;;;28.08;11.48;;;10.60;90.90;;;;;;9176271;19;20051;-69
2022/11/29 16:10:15;;;;;;;25.77;9.68;;;10.60;90.90;;;;;;9167381;19;20959;-68
2022/11/29 16:13:39;;;;;;;25.58;10.27;;;10.60;90.90;;;;;;9167596;19;20026;-69
2022/11/29 16:16:45;;;;;;;33.92;11.68;;;10.60;90.90;;;;;;9164418;19;20022;-69
2022/11/29 16:19:50;;;;;;;32.10;11.07;;;10.50;90.80;;;;;;9163862;19;20018;-69
2022/11/29 16:23:04;;;;;;;;;;;10.60;90.90;;;;;;9164282;19;20051;-69
2022/11/29 16:26:15;;;;;;;31.42;11.32;;;10.60;90.90;;;;;;9163305;19;19937;-68
2022/11/29 16:29:30;;;;;;;39.33;12.43;;;10.50;90.80;;;;;;9167985;19;20026;-67
2022/11/29 16:32:36;;;;;;;32.80;11.77;;;10.50;90.90;;;;;;9163685;19;20668;-68
2022/11/29 16:35:40;;;;;;;29.02;11.95;;;10.50;90.90;;;;;;9165406;19;20032;-67